sensor_id;sensor_type;location;lat;lon;timestamp;P1;durP1;ratioP1;P2;durP2;ratioP2
44606;SDS011;30315;46.072;14.474;2023-03-26T00:01:26;16.70;;;13.75;;
44606;SDS011;30315;46.072;14.474;2023-03-26T00:03:55;21.90;;;17.07;;
44606;SDS011;30315;46.072;14.474;2023-03-26T00:06:24;18.88;;;15.55;;
44606;SDS011;30315;46.072;14.474;2023-03-26T00:08:55;19.38;;;15.77;;
44606;SDS011;30315;46.072;14.474;2023-03-26T00:11:25;20.08;;;15.88;;
44606;SDS011;30315;46.072;14.474;2023-03-26T00:13:54;16.98;;;15.05;;
44606;SDS011;30315;46.072;14.474;2023-03-26T00:16:26;19.88;;;16.17;;
44606;SDS011;30315;46.072;14.474;2023-03-26T00:18:55;19.85;;;16.88;;
44606;SDS011;30315;46.072;14.474;2023-03-26T00:21:24;19.60;;;16.30;;
44606;SDS011;30315;46.072;14.474;2023-03-26T00:23:54;21.65;;;17.15;;
44606;SDS011;30315;46.072;14.474;2023-03-26T00:26:26;21.38;;;16.88;;
44606;SDS011;30315;46.072;14.474;2023-03-26T00:28:56;20.95;;;17.20;;
44606;SDS011;30315;46.072;14.474;2023-03-26T00:31:25;23.15;;;17.67;;
44606;SDS011;30315;46.072;14.474;2023-03-26T00:33:53;21.45;;;17.23;;
44606;SDS011;30315;46.072;14.474;2023-03-26T00:36:21;21.25;;;17.20;;
44606;SDS011;30315;46.072;14.474;2023-03-26T00:38:52;18.98;;;16.08;;
44606;SDS011;30315;46.072;14.474;2023-03-26T00:41:21;19.70;;;15.45;;
44606;SDS011;30315;46.072;14.474;2023-03-26T00:43:53;16.65;;;13.88;;
44606;SDS011;30315;46.072;14.474;2023-03-26T00:46:22;17.95;;;15.27;;
44606;SDS011;30315;46.072;14.474;2023-03-26T00:48:50;16.20;;;14.33;;
44606;SDS011;30315;46.072;14.474;2023-03-26T00:51:19;16.95;;;14.25;;
44606;SDS011;30315;46.072;14.474;2023-03-26T00:53:47;16.75;;;14.57;;
44606;SDS011;30315;46.072;14.474;2023-03-26T00:56:15;20.02;;;16.05;;
44606;SDS011;30315;46.072;14.474;2023-03-26T00:58:42;17.63;;;15.27;;
44606;SDS011;30315;46.072;14.474;2023-03-26T01:01:12;16.25;;;14.32;;
44606;SDS011;30315;46.072;14.474;2023-03-26T01:03:42;17.70;;;15.52;;
44606;SDS011;30315;46.072;14.474;2023-03-26T01:06:31;18.58;;;15.25;;
44606;SDS011;30315;46.072;14.474;2023-03-26T01:09:03;18.75;;;14.52;;
44606;SDS011;30315;46.072;14.474;2023-03-26T01:11:38;17.65;;;15.20;;
44606;SDS011;30315;46.072;14.474;2023-03-26T01:14:07;17.98;;;14.32;;
44606;SDS011;30315;46.072;14.474;2023-03-26T01:16:42;18.75;;;15.60;;
44606;SDS011;30315;46.072;14.474;2023-03-26T01:22:14;19.23;;;16.00;;
44606;SDS011;30315;46.072;14.474;2023-03-26T01:24:43;17.30;;;14.93;;
44606;SDS011;30315;46.072;14.474;2023-03-26T01:27:16;20.83;;;15.57;;
44606;SDS011;30315;46.072;14.474;2023-03-26T01:35:56;18.92;;;15.48;;
44606;SDS011;30315;46.072;14.474;2023-03-26T01:38:37;20.95;;;16.88;;
44606;SDS011;30315;46.072;14.474;2023-03-26T01:41:46;20.30;;;16.30;;
44606;SDS011;30315;46.072;14.474;2023-03-26T01:46:55;23.53;;;16.57;;
44606;SDS011;30315;46.072;14.474;2023-03-26T01:49:28;22.90;;;17.85;;
44606;SDS011;30315;46.072;14.474;2023-03-26T01:51:56;20.70;;;16.98;;
44606;SDS011;30315;46.072;14.474;2023-03-26T01:54:24;22.35;;;17.27;;
44606;SDS011;30315;46.072;14.474;2023-03-26T01:57:02;22.08;;;17.10;;
44606;SDS011;30315;46.072;14.474;2023-03-26T02:05:19;21.23;;;17.92;;
44606;SDS011;30315;46.072;14.474;2023-03-26T02:07:52;21.08;;;16.80;;
44606;SDS011;30315;46.072;14.474;2023-03-26T02:10:32;22.67;;;18.40;;
44606;SDS011;30315;46.072;14.474;2023-03-26T02:13:04;22.77;;;17.98;;
44606;SDS011;30315;46.072;14.474;2023-03-26T02:15:31;23.77;;;18.50;;
44606;SDS011;30315;46.072;14.474;2023-03-26T02:20:54;23.35;;;18.15;;
44606;SDS011;30315;46.072;14.474;2023-03-26T02:23:21;23.92;;;17.77;;
44606;SDS011;30315;46.072;14.474;2023-03-26T02:25:48;23.10;;;17.25;;
44606;SDS011;30315;46.072;14.474;2023-03-26T02:28:15;23.23;;;18.35;;
44606;SDS011;30315;46.072;14.474;2023-03-26T02:30:42;22.85;;;18.00;;
44606;SDS011;30315;46.072;14.474;2023-03-26T02:33:12;23.55;;;18.30;;
44606;SDS011;30315;46.072;14.474;2023-03-26T02:35:40;23.25;;;18.90;;
44606;SDS011;30315;46.072;14.474;2023-03-26T02:38:11;23.55;;;18.75;;
44606;SDS011;30315;46.072;14.474;2023-03-26T02:40:40;23.35;;;18.70;;
44606;SDS011;30315;46.072;14.474;2023-03-26T02:43:07;26.38;;;19.23;;
44606;SDS011;30315;46.072;14.474;2023-03-26T02:45:35;28.38;;;20.50;;
44606;SDS011;30315;46.072;14.474;2023-03-26T02:50:45;23.60;;;18.40;;
44606;SDS011;30315;46.072;14.474;2023-03-26T02:53:21;27.90;;;21.70;;
44606;SDS011;30315;46.072;14.474;2023-03-26T02:55:56;25.88;;;19.45;;
44606;SDS011;30315;46.072;14.474;2023-03-26T02:58:27;25.52;;;19.15;;
44606;SDS011;30315;46.072;14.474;2023-03-26T03:00:55;25.50;;;19.77;;
44606;SDS011;30315;46.072;14.474;2023-03-26T03:03:28;26.30;;;19.65;;
44606;SDS011;30315;46.072;14.474;2023-03-26T03:05:56;26.48;;;19.20;;
44606;SDS011;30315;46.072;14.474;2023-03-26T03:11:09;23.73;;;18.15;;
44606;SDS011;30315;46.072;14.474;2023-03-26T03:13:48;27.17;;;19.33;;
44606;SDS011;30315;46.072;14.474;2023-03-26T03:16:19;27.52;;;20.02;;
44606;SDS011;30315;46.072;14.474;2023-03-26T03:18:46;26.60;;;20.02;;
44606;SDS011;30315;46.072;14.474;2023-03-26T03:21:31;25.50;;;19.35;;
44606;SDS011;30315;46.072;14.474;2023-03-26T03:23:59;32.25;;;21.52;;
44606;SDS011;30315;46.072;14.474;2023-03-26T03:26:29;29.48;;;20.75;;
44606;SDS011;30315;46.072;14.474;2023-03-26T03:29:07;27.38;;;19.70;;
44606;SDS011;30315;46.072;14.474;2023-03-26T03:31:35;29.98;;;20.45;;
44606;SDS011;30315;46.072;14.474;2023-03-26T03:34:06;27.45;;;20.00;;
44606;SDS011;30315;46.072;14.474;2023-03-26T03:36:36;29.17;;;21.23;;
44606;SDS011;30315;46.072;14.474;2023-03-26T03:39:19;26.98;;;20.20;;
44606;SDS011;30315;46.072;14.474;2023-03-26T03:41:46;28.05;;;20.58;;
44606;SDS011;30315;46.072;14.474;2023-03-26T03:44:15;27.17;;;20.10;;
44606;SDS011;30315;46.072;14.474;2023-03-26T03:46:42;24.95;;;19.52;;
44606;SDS011;30315;46.072;14.474;2023-03-26T03:49:09;26.15;;;19.48;;
44606;SDS011;30315;46.072;14.474;2023-03-26T03:51:36;28.23;;;20.33;;
44606;SDS011;30315;46.072;14.474;2023-03-26T03:54:12;26.83;;;19.00;;
44606;SDS011;30315;46.072;14.474;2023-03-26T03:57:00;27.10;;;19.90;;
44606;SDS011;30315;46.072;14.474;2023-03-26T03:59:27;25.98;;;19.92;;
44606;SDS011;30315;46.072;14.474;2023-03-26T04:01:55;27.40;;;19.92;;
44606;SDS011;30315;46.072;14.474;2023-03-26T04:04:30;24.98;;;18.65;;
44606;SDS011;30315;46.072;14.474;2023-03-26T04:07:00;26.98;;;19.15;;
44606;SDS011;30315;46.072;14.474;2023-03-26T04:09:53;26.10;;;19.85;;
44606;SDS011;30315;46.072;14.474;2023-03-26T04:12:28;28.13;;;19.67;;
44606;SDS011;30315;46.072;14.474;2023-03-26T04:14:59;23.15;;;18.17;;
44606;SDS011;30315;46.072;14.474;2023-03-26T04:17:27;26.63;;;18.85;;
44606;SDS011;30315;46.072;14.474;2023-03-26T04:19:56;25.27;;;18.88;;
44606;SDS011;30315;46.072;14.474;2023-03-26T04:22:28;25.70;;;19.05;;
44606;SDS011;30315;46.072;14.474;2023-03-26T04:25:02;24.48;;;18.85;;
44606;SDS011;30315;46.072;14.474;2023-03-26T04:27:36;29.95;;;21.27;;
44606;SDS011;30315;46.072;14.474;2023-03-26T04:30:18;28.35;;;20.65;;
44606;SDS011;30315;46.072;14.474;2023-03-26T04:33:07;28.65;;;20.17;;
44606;SDS011;30315;46.072;14.474;2023-03-26T04:35:42;28.13;;;20.38;;
44606;SDS011;30315;46.072;14.474;2023-03-26T04:38:12;29.63;;;19.80;;
44606;SDS011;30315;46.072;14.474;2023-03-26T04:40:44;27.20;;;19.48;;
44606;SDS011;30315;46.072;14.474;2023-03-26T04:43:32;25.33;;;19.02;;
44606;SDS011;30315;46.072;14.474;2023-03-26T04:46:02;27.10;;;19.17;;
44606;SDS011;30315;46.072;14.474;2023-03-26T04:48:35;28.23;;;19.67;;
44606;SDS011;30315;46.072;14.474;2023-03-26T04:51:06;26.55;;;19.38;;
44606;SDS011;30315;46.072;14.474;2023-03-26T04:53:35;31.92;;;20.27;;
44606;SDS011;30315;46.072;14.474;2023-03-26T04:56:05;28.10;;;20.35;;
44606;SDS011;30315;46.072;14.474;2023-03-26T04:59:16;27.17;;;19.20;;
44606;SDS011;30315;46.072;14.474;2023-03-26T05:01:46;29.83;;;21.05;;
44606;SDS011;30315;46.072;14.474;2023-03-26T05:04:15;28.40;;;19.15;;
44606;SDS011;30315;46.072;14.474;2023-03-26T05:06:42;27.52;;;19.90;;
44606;SDS011;30315;46.072;14.474;2023-03-26T05:09:20;25.05;;;18.83;;
44606;SDS011;30315;46.072;14.474;2023-03-26T05:12:16;26.38;;;19.60;;
44606;SDS011;30315;46.072;14.474;2023-03-26T05:14:54;29.52;;;20.60;;
44606;SDS011;30315;46.072;14.474;2023-03-26T05:17:39;25.85;;;19.30;;
44606;SDS011;30315;46.072;14.474;2023-03-26T05:20:18;24.45;;;18.30;;
44606;SDS011;30315;46.072;14.474;2023-03-26T05:22:48;23.25;;;17.23;;
44606;SDS011;30315;46.072;14.474;2023-03-26T05:25:29;24.92;;;17.45;;
44606;SDS011;30315;46.072;14.474;2023-03-26T05:27:59;24.42;;;16.92;;
44606;SDS011;30315;46.072;14.474;2023-03-26T05:30:45;29.45;;;18.80;;
44606;SDS011;30315;46.072;14.474;2023-03-26T05:33:13;25.33;;;17.65;;
44606;SDS011;30315;46.072;14.474;2023-03-26T05:36:02;25.13;;;17.52;;
44606;SDS011;30315;46.072;14.474;2023-03-26T05:38:32;24.83;;;17.58;;
44606;SDS011;30315;46.072;14.474;2023-03-26T05:41:02;24.92;;;17.98;;
44606;SDS011;30315;46.072;14.474;2023-03-26T05:43:35;26.42;;;17.83;;
44606;SDS011;30315;46.072;14.474;2023-03-26T05:46:09;24.98;;;17.42;;
44606;SDS011;30315;46.072;14.474;2023-03-26T05:48:37;23.98;;;16.30;;
44606;SDS011;30315;46.072;14.474;2023-03-26T05:51:05;25.48;;;17.35;;
44606;SDS011;30315;46.072;14.474;2023-03-26T05:53:33;25.08;;;18.30;;
44606;SDS011;30315;46.072;14.474;2023-03-26T05:56:24;22.90;;;17.25;;
44606;SDS011;30315;46.072;14.474;2023-03-26T05:58:57;26.27;;;18.33;;
44606;SDS011;30315;46.072;14.474;2023-03-26T06:01:44;25.27;;;17.73;;
44606;SDS011;30315;46.072;14.474;2023-03-26T06:04:14;27.10;;;18.33;;
44606;SDS011;30315;46.072;14.474;2023-03-26T06:07:02;24.65;;;16.98;;
44606;SDS011;30315;46.072;14.474;2023-03-26T06:09:29;25.60;;;17.52;;
44606;SDS011;30315;46.072;14.474;2023-03-26T06:11:57;26.25;;;18.95;;
44606;SDS011;30315;46.072;14.474;2023-03-26T06:14:24;29.50;;;17.90;;
44606;SDS011;30315;46.072;14.474;2023-03-26T06:17:13;25.08;;;17.67;;
44606;SDS011;30315;46.072;14.474;2023-03-26T06:20:01;27.70;;;18.38;;
44606;SDS011;30315;46.072;14.474;2023-03-26T06:22:34;25.60;;;17.85;;
44606;SDS011;30315;46.072;14.474;2023-03-26T06:25:19;28.42;;;18.50;;
44606;SDS011;30315;46.072;14.474;2023-03-26T06:28:18;24.55;;;17.10;;
44606;SDS011;30315;46.072;14.474;2023-03-26T06:31:03;24.77;;;18.33;;
44606;SDS011;30315;46.072;14.474;2023-03-26T06:33:37;23.20;;;17.35;;
44606;SDS011;30315;46.072;14.474;2023-03-26T06:36:04;24.77;;;18.90;;
44606;SDS011;30315;46.072;14.474;2023-03-26T06:38:32;25.77;;;17.13;;
44606;SDS011;30315;46.072;14.474;2023-03-26T06:41:02;25.58;;;17.55;;
44606;SDS011;30315;46.072;14.474;2023-03-26T06:44:02;26.17;;;17.88;;
44606;SDS011;30315;46.072;14.474;2023-03-26T06:46:52;25.05;;;16.98;;
44606;SDS011;30315;46.072;14.474;2023-03-26T06:49:38;28.83;;;18.30;;
44606;SDS011;30315;46.072;14.474;2023-03-26T06:52:35;27.70;;;18.20;;
44606;SDS011;30315;46.072;14.474;2023-03-26T06:55:22;24.90;;;18.15;;
44606;SDS011;30315;46.072;14.474;2023-03-26T06:58:16;28.77;;;19.05;;
44606;SDS011;30315;46.072;14.474;2023-03-26T07:01:04;25.80;;;18.15;;
44606;SDS011;30315;46.072;14.474;2023-03-26T07:03:49;23.83;;;17.75;;
44606;SDS011;30315;46.072;14.474;2023-03-26T07:06:42;24.63;;;17.00;;
44606;SDS011;30315;46.072;14.474;2023-03-26T07:09:38;21.48;;;16.95;;
44606;SDS011;30315;46.072;14.474;2023-03-26T07:12:08;24.00;;;17.70;;
44606;SDS011;30315;46.072;14.474;2023-03-26T07:14:54;19.63;;;15.85;;
44606;SDS011;30315;46.072;14.474;2023-03-26T07:17:25;19.63;;;15.60;;
44606;SDS011;30315;46.072;14.474;2023-03-26T07:20:12;24.25;;;16.30;;
44606;SDS011;30315;46.072;14.474;2023-03-26T07:22:40;24.23;;;18.25;;
44606;SDS011;30315;46.072;14.474;2023-03-26T07:25:16;24.73;;;16.90;;
44606;SDS011;30315;46.072;14.474;2023-03-26T07:34:10;27.63;;;18.88;;
44606;SDS011;30315;46.072;14.474;2023-03-26T07:37:06;23.17;;;16.98;;
44606;SDS011;30315;46.072;14.474;2023-03-26T07:46:54;22.63;;;16.92;;
44606;SDS011;30315;46.072;14.474;2023-03-26T07:49:33;25.10;;;17.90;;
44606;SDS011;30315;46.072;14.474;2023-03-26T07:52:08;24.42;;;17.77;;
44606;SDS011;30315;46.072;14.474;2023-03-26T07:55:02;25.25;;;18.40;;
44606;SDS011;30315;46.072;14.474;2023-03-26T08:00:41;24.85;;;17.83;;
44606;SDS011;30315;46.072;14.474;2023-03-26T08:03:17;24.58;;;19.00;;
44606;SDS011;30315;46.072;14.474;2023-03-26T08:06:04;23.08;;;16.98;;
44606;SDS011;30315;46.072;14.474;2023-03-26T08:12:00;21.35;;;16.27;;
44606;SDS011;30315;46.072;14.474;2023-03-26T08:14:53;23.73;;;17.75;;
44606;SDS011;30315;46.072;14.474;2023-03-26T08:17:51;21.88;;;16.75;;
44606;SDS011;30315;46.072;14.474;2023-03-26T08:23:06;22.20;;;17.73;;
44606;SDS011;30315;46.072;14.474;2023-03-26T08:25:50;24.13;;;18.60;;
44606;SDS011;30315;46.072;14.474;2023-03-26T08:28:41;24.02;;;17.95;;
44606;SDS011;30315;46.072;14.474;2023-03-26T08:31:11;25.60;;;20.23;;
44606;SDS011;30315;46.072;14.474;2023-03-26T08:33:41;25.05;;;18.73;;
44606;SDS011;30315;46.072;14.474;2023-03-26T08:36:09;25.90;;;18.58;;
44606;SDS011;30315;46.072;14.474;2023-03-26T08:38:36;24.10;;;17.65;;
44606;SDS011;30315;46.072;14.474;2023-03-26T08:46:26;22.45;;;16.50;;
44606;SDS011;30315;46.072;14.474;2023-03-26T08:54:52;21.92;;;17.42;;
44606;SDS011;30315;46.072;14.474;2023-03-26T09:15:20;20.42;;;16.10;;
44606;SDS011;30315;46.072;14.474;2023-03-26T09:21:04;21.13;;;15.35;;
44606;SDS011;30315;46.072;14.474;2023-03-26T09:26:28;17.92;;;14.80;;
44606;SDS011;30315;46.072;14.474;2023-03-26T09:29:39;17.48;;;13.32;;
44606;SDS011;30315;46.072;14.474;2023-03-26T09:41:12;12.93;;;11.25;;
44606;SDS011;30315;46.072;14.474;2023-03-26T09:53:04;14.18;;;12.13;;
44606;SDS011;30315;46.072;14.474;2023-03-26T09:55:48;15.02;;;13.00;;
44606;SDS011;30315;46.072;14.474;2023-03-26T10:13:01;13.13;;;11.65;;
44606;SDS011;30315;46.072;14.474;2023-03-26T10:15:31;13.20;;;11.80;;
44606;SDS011;30315;46.072;14.474;2023-03-26T10:18:12;13.15;;;11.27;;
44606;SDS011;30315;46.072;14.474;2023-03-26T10:21:04;13.57;;;11.25;;
44606;SDS011;30315;46.072;14.474;2023-03-26T10:23:54;12.38;;;11.18;;
44606;SDS011;30315;46.072;14.474;2023-03-26T10:52:22;10.52;;;9.43;;
44606;SDS011;30315;46.072;14.474;2023-03-26T10:55:09;9.52;;;7.97;;
44606;SDS011;30315;46.072;14.474;2023-03-26T10:57:57;8.18;;;7.47;;
44606;SDS011;30315;46.072;14.474;2023-03-26T11:00:42;8.18;;;7.40;;
44606;SDS011;30315;46.072;14.474;2023-03-26T11:03:29;8.02;;;7.28;;
44606;SDS011;30315;46.072;14.474;2023-03-26T11:06:04;7.88;;;7.07;;
44606;SDS011;30315;46.072;14.474;2023-03-26T11:17:35;7.95;;;6.55;;
44606;SDS011;30315;46.072;14.474;2023-03-26T11:22:52;5.60;;;5.03;;
44606;SDS011;30315;46.072;14.474;2023-03-26T11:26:09;5.05;;;4.28;;
44606;SDS011;30315;46.072;14.474;2023-03-26T11:34:37;4.75;;;4.45;;
44606;SDS011;30315;46.072;14.474;2023-03-26T11:37:34;4.53;;;4.18;;
44606;SDS011;30315;46.072;14.474;2023-03-26T11:40:08;5.15;;;4.75;;
44606;SDS011;30315;46.072;14.474;2023-03-26T11:42:41;4.60;;;4.30;;
44606;SDS011;30315;46.072;14.474;2023-03-26T11:45:16;5.13;;;4.72;;
44606;SDS011;30315;46.072;14.474;2023-03-26T11:47:49;5.20;;;4.80;;
44606;SDS011;30315;46.072;14.474;2023-03-26T11:50:24;5.55;;;5.15;;
44606;SDS011;30315;46.072;14.474;2023-03-26T11:53:01;5.10;;;4.70;;
44606;SDS011;30315;46.072;14.474;2023-03-26T11:55:39;5.25;;;4.85;;
44606;SDS011;30315;46.072;14.474;2023-03-26T11:58:28;4.85;;;4.45;;
44606;SDS011;30315;46.072;14.474;2023-03-26T12:01:04;5.20;;;4.80;;
44606;SDS011;30315;46.072;14.474;2023-03-26T12:03:42;4.90;;;4.50;;
44606;SDS011;30315;46.072;14.474;2023-03-26T12:06:29;5.22;;;4.82;;
44606;SDS011;30315;46.072;14.474;2023-03-26T12:08:58;4.97;;;4.55;;
44606;SDS011;30315;46.072;14.474;2023-03-26T12:11:25;5.60;;;5.18;;
44606;SDS011;30315;46.072;14.474;2023-03-26T12:14:01;5.22;;;4.80;;
44606;SDS011;30315;46.072;14.474;2023-03-26T12:16:30;5.20;;;4.80;;
44606;SDS011;30315;46.072;14.474;2023-03-26T12:19:00;5.57;;;5.10;;
44606;SDS011;30315;46.072;14.474;2023-03-26T12:21:44;5.65;;;5.15;;
44606;SDS011;30315;46.072;14.474;2023-03-26T12:27:19;4.97;;;4.68;;
44606;SDS011;30315;46.072;14.474;2023-03-26T12:30:52;5.10;;;4.70;;
44606;SDS011;30315;46.072;14.474;2023-03-26T12:32:51;4.53;;;4.13;;
44606;SDS011;30315;46.072;14.474;2023-03-26T12:35:29;5.10;;;4.70;;
44606;SDS011;30315;46.072;14.474;2023-03-26T12:38:18;5.40;;;4.97;;
44606;SDS011;30315;46.072;14.474;2023-03-26T12:41:02;5.57;;;4.90;;
44606;SDS011;30315;46.072;14.474;2023-03-26T12:46:31;5.17;;;4.77;;
44606;SDS011;30315;46.072;14.474;2023-03-26T12:49:20;5.10;;;4.70;;
44606;SDS011;30315;46.072;14.474;2023-03-26T12:51:54;5.15;;;4.75;;
44606;SDS011;30315;46.072;14.474;2023-03-26T12:54:48;4.93;;;4.53;;
44606;SDS011;30315;46.072;14.474;2023-03-26T12:57:22;4.68;;;4.28;;
44606;SDS011;30315;46.072;14.474;2023-03-26T13:15:51;4.60;;;4.18;;
44606;SDS011;30315;46.072;14.474;2023-03-26T13:18:31;4.30;;;3.92;;
44606;SDS011;30315;46.072;14.474;2023-03-26T13:21:15;4.47;;;3.92;;
44606;SDS011;30315;46.072;14.474;2023-03-26T13:26:44;3.50;;;3.08;;
44606;SDS011;30315;46.072;14.474;2023-03-26T13:32:23;4.50;;;4.03;;
44606;SDS011;30315;46.072;14.474;2023-03-26T13:35:01;3.50;;;3.20;;
44606;SDS011;30315;46.072;14.474;2023-03-26T13:43:16;4.05;;;3.65;;
44606;SDS011;30315;46.072;14.474;2023-03-26T13:48:49;5.28;;;2.72;;
44606;SDS011;30315;46.072;14.474;2023-03-26T13:51:34;5.07;;;2.90;;
44606;SDS011;30315;46.072;14.474;2023-03-26T13:54:13;4.68;;;2.88;;
44606;SDS011;30315;46.072;14.474;2023-03-26T13:56:53;4.50;;;3.05;;
44606;SDS011;30315;46.072;14.474;2023-03-26T14:02:02;3.38;;;2.35;;
44606;SDS011;30315;46.072;14.474;2023-03-26T14:04:38;4.32;;;3.22;;
44606;SDS011;30315;46.072;14.474;2023-03-26T14:07:21;5.78;;;2.92;;
44606;SDS011;30315;46.072;14.474;2023-03-26T14:09:54;3.65;;;2.50;;
44606;SDS011;30315;46.072;14.474;2023-03-26T14:15:43;3.65;;;2.70;;
44606;SDS011;30315;46.072;14.474;2023-03-26T14:21:04;6.00;;;3.08;;
44606;SDS011;30315;46.072;14.474;2023-03-26T14:26:25;6.80;;;2.80;;
44606;SDS011;30315;46.072;14.474;2023-03-26T14:29:15;4.40;;;2.67;;
44606;SDS011;30315;46.072;14.474;2023-03-26T14:41:08;4.82;;;3.03;;
44606;SDS011;30315;46.072;14.474;2023-03-26T14:52:10;7.22;;;2.63;;
44606;SDS011;30315;46.072;14.474;2023-03-26T14:54:44;8.73;;;3.10;;
44606;SDS011;30315;46.072;14.474;2023-03-26T15:10:14;5.03;;;2.28;;
44606;SDS011;30315;46.072;14.474;2023-03-26T15:13:14;6.38;;;2.35;;
44606;SDS011;30315;46.072;14.474;2023-03-26T15:27:36;5.05;;;2.85;;
44606;SDS011;30315;46.072;14.474;2023-03-26T15:35:52;8.32;;;2.80;;
44606;SDS011;30315;46.072;14.474;2023-03-26T15:41:25;8.20;;;3.10;;
44606;SDS011;30315;46.072;14.474;2023-03-26T15:46:55;4.32;;;2.30;;
44606;SDS011;30315;46.072;14.474;2023-03-26T15:49:38;4.72;;;2.45;;
44606;SDS011;30315;46.072;14.474;2023-03-26T15:57:43;4.70;;;2.40;;
44606;SDS011;30315;46.072;14.474;2023-03-26T16:11:06;7.68;;;2.70;;
44606;SDS011;30315;46.072;14.474;2023-03-26T16:16:55;6.57;;;2.60;;
44606;SDS011;30315;46.072;14.474;2023-03-26T16:24:35;5.50;;;3.38;;
44606;SDS011;30315;46.072;14.474;2023-03-26T16:27:27;6.70;;;3.55;;
44606;SDS011;30315;46.072;14.474;2023-03-26T16:30:12;7.00;;;4.25;;
44606;SDS011;30315;46.072;14.474;2023-03-26T16:32:56;8.32;;;3.92;;
44606;SDS011;30315;46.072;14.474;2023-03-26T16:36:00;5.05;;;2.97;;
44606;SDS011;30315;46.072;14.474;2023-03-26T16:44:26;5.00;;;2.40;;
44606;SDS011;30315;46.072;14.474;2023-03-26T16:52:42;5.38;;;2.78;;
44606;SDS011;30315;46.072;14.474;2023-03-26T17:01:21;3.15;;;2.45;;
44606;SDS011;30315;46.072;14.474;2023-03-26T17:06:47;5.32;;;2.70;;
44606;SDS011;30315;46.072;14.474;2023-03-26T17:23:09;4.75;;;3.05;;
44606;SDS011;30315;46.072;14.474;2023-03-26T17:26:10;7.78;;;3.20;;
44606;SDS011;30315;46.072;14.474;2023-03-26T17:34:41;4.53;;;3.20;;
44606;SDS011;30315;46.072;14.474;2023-03-26T17:45:01;6.32;;;2.75;;
44606;SDS011;30315;46.072;14.474;2023-03-26T17:47:35;4.28;;;2.75;;
44606;SDS011;30315;46.072;14.474;2023-03-26T17:53:23;6.72;;;3.45;;
44606;SDS011;30315;46.072;14.474;2023-03-26T17:55:56;6.82;;;3.25;;
44606;SDS011;30315;46.072;14.474;2023-03-26T17:58:35;6.13;;;3.33;;
44606;SDS011;30315;46.072;14.474;2023-03-26T18:03:46;10.65;;;4.40;;
44606;SDS011;30315;46.072;14.474;2023-03-26T18:06:34;9.10;;;3.90;;
44606;SDS011;30315;46.072;14.474;2023-03-26T18:09:28;9.73;;;5.20;;
44606;SDS011;30315;46.072;14.474;2023-03-26T18:17:50;13.88;;;6.65;;
44606;SDS011;30315;46.072;14.474;2023-03-26T18:20:46;11.23;;;6.22;;
44606;SDS011;30315;46.072;14.474;2023-03-26T18:23:27;10.90;;;6.60;;
44606;SDS011;30315;46.072;14.474;2023-03-26T18:26:13;16.55;;;8.52;;
44606;SDS011;30315;46.072;14.474;2023-03-26T18:31:44;9.45;;;5.78;;
44606;SDS011;30315;46.072;14.474;2023-03-26T18:34:16;9.60;;;4.75;;
44606;SDS011;30315;46.072;14.474;2023-03-26T18:36:45;8.55;;;4.53;;
44606;SDS011;30315;46.072;14.474;2023-03-26T18:39:23;11.02;;;4.88;;
44606;SDS011;30315;46.072;14.474;2023-03-26T18:41:50;12.55;;;4.15;;
44606;SDS011;30315;46.072;14.474;2023-03-26T18:44:17;7.00;;;4.28;;
44606;SDS011;30315;46.072;14.474;2023-03-26T18:46:45;11.63;;;4.70;;
44606;SDS011;30315;46.072;14.474;2023-03-26T18:49:12;10.70;;;4.35;;
44606;SDS011;30315;46.072;14.474;2023-03-26T18:51:41;7.15;;;3.92;;
44606;SDS011;30315;46.072;14.474;2023-03-26T18:54:22;11.30;;;5.03;;
44606;SDS011;30315;46.072;14.474;2023-03-26T18:56:53;9.07;;;4.40;;
44606;SDS011;30315;46.072;14.474;2023-03-26T18:59:23;10.45;;;5.10;;
44606;SDS011;30315;46.072;14.474;2023-03-26T19:02:01;11.48;;;4.75;;
44606;SDS011;30315;46.072;14.474;2023-03-26T19:04:32;8.60;;;4.07;;
44606;SDS011;30315;46.072;14.474;2023-03-26T19:07:00;10.25;;;4.00;;
44606;SDS011;30315;46.072;14.474;2023-03-26T19:09:28;8.43;;;3.95;;
44606;SDS011;30315;46.072;14.474;2023-03-26T19:17:28;8.55;;;4.60;;
44606;SDS011;30315;46.072;14.474;2023-03-26T19:20:02;7.90;;;3.95;;
44606;SDS011;30315;46.072;14.474;2023-03-26T19:22:33;6.25;;;3.53;;
44606;SDS011;30315;46.072;14.474;2023-03-26T19:25:00;9.88;;;4.00;;
44606;SDS011;30315;46.072;14.474;2023-03-26T19:27:28;10.57;;;3.88;;
44606;SDS011;30315;46.072;14.474;2023-03-26T19:29:56;7.60;;;4.45;;
44606;SDS011;30315;46.072;14.474;2023-03-26T19:32:27;8.88;;;4.03;;
44606;SDS011;30315;46.072;14.474;2023-03-26T19:35:00;8.77;;;4.20;;
44606;SDS011;30315;46.072;14.474;2023-03-26T19:37:29;8.80;;;4.57;;
44606;SDS011;30315;46.072;14.474;2023-03-26T19:40:01;10.30;;;4.10;;
44606;SDS011;30315;46.072;14.474;2023-03-26T19:42:39;6.85;;;3.45;;
44606;SDS011;30315;46.072;14.474;2023-03-26T19:45:17;7.82;;;3.25;;
44606;SDS011;30315;46.072;14.474;2023-03-26T19:47:46;5.20;;;2.90;;
44606;SDS011;30315;46.072;14.474;2023-03-26T19:50:30;6.40;;;3.30;;
44606;SDS011;30315;46.072;14.474;2023-03-26T19:58:34;9.30;;;4.68;;
44606;SDS011;30315;46.072;14.474;2023-03-26T20:01:02;10.48;;;4.78;;
44606;SDS011;30315;46.072;14.474;2023-03-26T20:03:38;9.00;;;4.30;;
44606;SDS011;30315;46.072;14.474;2023-03-26T20:06:10;4.45;;;3.65;;
44606;SDS011;30315;46.072;14.474;2023-03-26T20:08:38;10.23;;;4.35;;
44606;SDS011;30315;46.072;14.474;2023-03-26T20:11:17;5.43;;;3.50;;
44606;SDS011;30315;46.072;14.474;2023-03-26T20:13:46;5.68;;;3.80;;
44606;SDS011;30315;46.072;14.474;2023-03-26T20:16:48;5.65;;;3.40;;
44606;SDS011;30315;46.072;14.474;2023-03-26T20:19:10;12.27;;;4.20;;
44606;SDS011;30315;46.072;14.474;2023-03-26T20:21:39;7.03;;;3.10;;
44606;SDS011;30315;46.072;14.474;2023-03-26T20:24:14;7.85;;;3.50;;
44606;SDS011;30315;46.072;14.474;2023-03-26T20:26:42;5.00;;;3.13;;
44606;SDS011;30315;46.072;14.474;2023-03-26T20:29:11;9.27;;;4.40;;
44606;SDS011;30315;46.072;14.474;2023-03-26T20:31:39;8.00;;;4.80;;
44606;SDS011;30315;46.072;14.474;2023-03-26T20:34:15;9.68;;;5.57;;
44606;SDS011;30315;46.072;14.474;2023-03-26T20:36:44;7.55;;;5.50;;
44606;SDS011;30315;46.072;14.474;2023-03-26T20:39:12;8.60;;;4.97;;
44606;SDS011;30315;46.072;14.474;2023-03-26T20:41:42;7.55;;;4.55;;
44606;SDS011;30315;46.072;14.474;2023-03-26T20:44:12;6.22;;;4.20;;
44606;SDS011;30315;46.072;14.474;2023-03-26T20:46:41;5.68;;;4.03;;
44606;SDS011;30315;46.072;14.474;2023-03-26T20:49:09;6.65;;;3.65;;
44606;SDS011;30315;46.072;14.474;2023-03-26T20:51:37;6.13;;;3.65;;
44606;SDS011;30315;46.072;14.474;2023-03-26T20:54:11;2.97;;;2.42;;
44606;SDS011;30315;46.072;14.474;2023-03-26T20:59:19;4.15;;;2.60;;
44606;SDS011;30315;46.072;14.474;2023-03-26T21:01:48;3.63;;;2.53;;
44606;SDS011;30315;46.072;14.474;2023-03-26T21:04:16;2.58;;;2.38;;
44606;SDS011;30315;46.072;14.474;2023-03-26T21:06:44;3.60;;;2.17;;
44606;SDS011;30315;46.072;14.474;2023-03-26T21:09:13;4.53;;;2.38;;
44606;SDS011;30315;46.072;14.474;2023-03-26T21:11:51;3.42;;;2.15;;